CheckWX is a tool to help pilots better visualize weather data.  It is not intended as a substitute for an official pre-flight weather briefing.

19:56:27 UTC

KCDW METAR
Essex County Airport
Caldwell, New Jersey, USA
Current

1 hour ago

KCDW 271853Z 31008KT 10SM OVC044 07/M03 A2966 RMK AO2 SLP049 T00721028
Observed
Jan-27 @ 18:53 UTC
Wind
  • 310° at 8 KTS
Visibility
10 SM
Flight Rules
VFR
Cloud Levels
  • Overcast at 4,400' AGL
Temperature
C / 45°F
Dewpoint
-3°C / 27°F
Humidity
49%
Altimeter
29.66" Hg
Pressure
1004.42 hPa
Previous

2 hours ago

KCDW 271753Z 31011KT 10SM OVC046 08/M03 A2967 RMK AO2 SLP052 T00781028 10078 20022 58014
Observed
Jan-27 @ 17:53 UTC
Wind
  • 310° at 11 KTS
Visibility
10 SM
Flight Rules
VFR
Cloud Levels
  • Overcast at 4,600' AGL
Temperature
C / 46°F
Dewpoint
-3°C / 27°F
Humidity
46%
Altimeter
29.67" Hg
Pressure
1004.72 hPa
Previous

3 hours ago

KCDW 271653Z 26004KT 10SM OVC042 07/M01 A2969 RMK AO2 SLP058 T00671011
Observed
Jan-27 @ 16:53 UTC
Wind
  • 260° at 4 KTS
Visibility
10 SM
Flight Rules
VFR
Cloud Levels
  • Overcast at 4,200' AGL
Temperature
C / 45°F
Dewpoint
-1°C / 30°F
Humidity
57%
Altimeter
29.69" Hg
Pressure
1005.42 hPa